createdAt,value
2019-03-09T00:01:46.126Z,100572.72
2019-03-09T00:04:15.604Z,100571.36
2019-03-09T00:06:45.178Z,100557.41
2019-03-09T00:09:15.352Z,100556.94
2019-03-09T00:11:44.900Z,100553.88
2019-03-09T00:14:17.291Z,100546.09
2019-03-09T00:16:46.728Z,100542.55
2019-03-09T00:19:16.165Z,100536.03
2019-03-09T00:21:47.730Z,100531.17
2019-03-09T00:24:24.505Z,100519.92
2019-03-09T00:26:55.582Z,100504.75
2019-03-09T00:29:26.627Z,100498.73
2019-03-09T00:32:01.151Z,100494.84
2019-03-09T00:34:30.799Z,100496.13
2019-03-09T00:37:00.790Z,100490.08
2019-03-09T00:39:30.764Z,100487.48
2019-03-09T00:42:00.207Z,100478.40
2019-03-09T00:44:31.002Z,100472.27
2019-03-09T00:47:00.944Z,100464.82
2019-03-09T00:49:31.911Z,100463.13
2019-03-09T00:52:01.322Z,100452.77
2019-03-09T00:54:30.761Z,100450.98
2019-03-09T00:57:01.904Z,100444.52
2019-03-09T00:59:31.325Z,100439.30
2019-03-09T01:02:03.810Z,100438.75
2019-03-09T01:04:33.235Z,100432.66
2019-03-09T01:07:02.644Z,100428.77
2019-03-09T01:09:32.092Z,100421.38
2019-03-09T01:12:01.500Z,100421.38
2019-03-09T01:14:31.511Z,100413.16
2019-03-09T01:17:01.993Z,100398.02
2019-03-09T01:19:31.704Z,100398.01
2019-03-09T01:22:01.145Z,100394.55
2019-03-09T01:24:33.687Z,100384.02
2019-03-09T01:27:03.190Z,100372.30
2019-03-09T01:29:34.124Z,100367.06
2019-03-09T01:32:03.549Z,100355.45
2019-03-09T01:34:32.957Z,100351.44
2019-03-09T01:37:02.471Z,100324.92
2019-03-09T01:39:32.054Z,100320.48
2019-03-09T01:42:01.554Z,100328.14
2019-03-09T01:44:30.994Z,100312.61
2019-03-09T01:47:03.501Z,100300.05
2019-03-09T01:49:32.996Z,100306.06
2019-03-09T01:52:04.439Z,100299.97
2019-03-09T01:54:33.596Z,100295.98
2019-03-09T01:57:04.853Z,100297.72
2019-03-09T01:59:34.353Z,100287.33
2019-03-09T02:02:03.936Z,100274.03
2019-03-09T02:04:33.444Z,100274.95
2019-03-09T02:07:02.850Z,100266.28
2019-03-09T02:09:32.431Z,100255.95
2019-03-09T02:12:01.860Z,100251.18
2019-03-09T02:14:31.343Z,100228.62
2019-03-09T02:17:00.774Z,100235.59
2019-03-09T02:19:30.183Z,100237.77
2019-03-09T02:21:59.666Z,100222.66
2019-03-09T02:24:29.080Z,100227.33
2019-03-09T02:27:00.122Z,100214.30
2019-03-09T02:29:32.438Z,100206.59
2019-03-09T02:32:01.870Z,100207.42
2019-03-09T02:34:31.282Z,100204.44
2019-03-09T02:37:00.721Z,100191.93
2019-03-09T02:39:35.779Z,100177.40
2019-03-09T02:42:05.497Z,100179.91
2019-03-09T02:44:34.906Z,100167.88
2019-03-09T02:47:04.891Z,100162.77
2019-03-09T02:49:34.298Z,100149.88
2019-03-09T02:52:03.804Z,100143.82
2019-03-09T02:54:33.230Z,100127.91
2019-03-09T02:57:04.247Z,100128.03
2019-03-09T02:59:33.681Z,100123.80
2019-03-09T03:02:16.852Z,100127.78
2019-03-09T03:04:46.293Z,100127.26
2019-03-09T03:07:15.710Z,100119.91
2019-03-09T03:09:45.133Z,100113.90
2019-03-09T03:12:14.629Z,100099.75
2019-03-09T03:14:47.002Z,100097.16
2019-03-09T03:17:16.408Z,100092.48
2019-03-09T03:19:45.842Z,100089.12
2019-03-09T03:22:18.276Z,100091.85
2019-03-09T03:24:48.191Z,100070.22
2019-03-09T03:27:17.665Z,100067.58
2019-03-09T03:29:47.066Z,100067.28
2019-03-09T03:32:16.868Z,100056.99
2019-03-09T03:34:46.286Z,100045.41
2019-03-09T03:37:18.710Z,100048.00
2019-03-09T03:39:48.194Z,100032.91
2019-03-09T03:42:18.055Z,100038.02
2019-03-09T03:44:47.530Z,100032.39
2019-03-09T03:47:18.108Z,100028.94
2019-03-09T03:49:47.576Z,100027.25
2019-03-09T03:52:16.954Z,100021.23
2019-03-09T03:54:46.437Z,100018.47
2019-03-09T03:57:15.821Z,100020.67
2019-03-09T03:59:45.334Z,100020.76
2019-03-09T04:02:14.891Z,100020.72
2019-03-09T04:04:44.453Z,100024.23
2019-03-09T04:07:14.233Z,100018.65
2019-03-09T04:09:44.109Z,100022.29
2019-03-09T04:12:13.558Z,100017.83
2019-03-09T04:14:43.029Z,100020.08
2019-03-09T04:17:12.471Z,100017.58
2019-03-09T04:19:41.955Z,100010.41
2019-03-09T04:22:11.401Z,100024.20
2019-03-09T04:24:40.884Z,100012.18
2019-03-09T04:27:10.458Z,99984.47
2019-03-09T04:29:39.927Z,100006.55
2019-03-09T04:32:09.495Z,100007.20
2019-03-09T04:34:39.586Z,99997.64
2019-03-09T04:37:08.943Z,99990.34
2019-03-09T04:39:38.385Z,99976.08
2019-03-09T04:42:07.788Z,99990.73
2019-03-09T04:44:37.223Z,99992.45
2019-03-09T04:47:06.770Z,99976.94
2019-03-09T04:49:36.191Z,99970.03
2019-03-09T04:52:05.604Z,99964.36
2019-03-09T04:54:35.027Z,99954.51
2019-03-09T04:57:07.628Z,99963.11
2019-03-09T04:59:37.042Z,99958.48
2019-03-09T05:02:06.443Z,99958.00
2019-03-09T05:04:41.970Z,99960.89
2019-03-09T05:07:13.034Z,99945.34
2019-03-09T05:09:48.084Z,99942.73
2019-03-09T05:12:17.512Z,99947.54
2019-03-09T05:14:46.989Z,99955.23
2019-03-09T05:17:16.448Z,99964.22
2019-03-09T05:19:45.858Z,99955.91
2019-03-09T05:22:15.352Z,99963.30
2019-03-09T05:24:44.762Z,99954.27
2019-03-09T05:27:14.449Z,99949.56
2019-03-09T05:29:43.868Z,99936.92
2019-03-09T05:32:13.358Z,99945.01
2019-03-09T05:34:45.138Z,99941.06
2019-03-09T05:37:14.543Z,99949.72
2019-03-09T05:39:45.018Z,99943.52
2019-03-09T05:42:14.422Z,99943.80
2019-03-09T05:44:43.844Z,99952.40
2019-03-09T05:47:13.259Z,99963.50
2019-03-09T05:49:42.690Z,99945.77
2019-03-09T05:52:24.279Z,99936.64
2019-03-09T05:54:57.009Z,99944.28
2019-03-09T05:57:26.485Z,99965.09
2019-03-09T05:59:55.914Z,99963.80
2019-03-09T06:02:25.315Z,99961.63
2019-03-09T06:04:54.733Z,99969.84
2019-03-09T06:07:24.159Z,99958.45
2019-03-09T06:09:53.571Z,99965.75
2019-03-09T06:12:23.018Z,99986.52
2019-03-09T06:14:52.573Z,99989.78
2019-03-09T06:17:21.999Z,99995.90
2019-03-09T06:19:51.483Z,99997.44
2019-03-09T06:22:20.917Z,99983.09
2019-03-09T06:24:50.343Z,100002.38
2019-03-09T06:27:19.793Z,99997.90
2019-03-09T06:29:49.217Z,99998.66
2019-03-09T06:32:34.143Z,100008.12
2019-03-09T06:35:05.238Z,100006.30
2019-03-09T06:37:34.703Z,100012.64
2019-03-09T06:40:08.159Z,100026.44
2019-03-09T06:42:46.297Z,100016.92
2019-03-09T06:45:16.818Z,100016.00
2019-03-09T06:47:46.419Z,100019.95
2019-03-09T06:50:17.077Z,100052.31
2019-03-09T06:52:46.608Z,100036.83
2019-03-09T06:55:16.106Z,100055.64
2019-03-09T06:57:45.521Z,100068.05
2019-03-09T07:00:23.954Z,100087.97
2019-03-09T07:02:53.375Z,100069.05
2019-03-09T07:05:22.818Z,100070.25
2019-03-09T07:07:52.325Z,100067.81
2019-03-09T07:10:21.818Z,100074.97
2019-03-09T07:12:51.340Z,100080.64
2019-03-09T07:15:24.079Z,100082.33
2019-03-09T07:17:55.966Z,100078.39
2019-03-09T07:20:25.524Z,100077.95
2019-03-09T07:22:56.564Z,100096.04
2019-03-09T07:25:26.014Z,100080.58
2019-03-09T07:27:58.496Z,100094.17
2019-03-09T07:30:28.098Z,100086.72
2019-03-09T07:32:57.602Z,100084.66
2019-03-09T07:35:27.110Z,100091.44
2019-03-09T07:37:56.594Z,100094.80
2019-03-09T07:40:26.030Z,100095.61
2019-03-09T07:42:55.516Z,100104.61
2019-03-09T07:45:24.948Z,100101.03
2019-03-09T07:47:54.521Z,100109.41
2019-03-09T07:50:24.024Z,100111.05
2019-03-09T07:52:55.399Z,100124.06
2019-03-09T07:55:24.880Z,100117.77
2019-03-09T07:58:02.184Z,100123.68
2019-03-09T08:00:31.879Z,100138.84
2019-03-09T08:03:01.771Z,100138.25
2019-03-09T08:05:31.307Z,100151.22
2019-03-09T08:08:00.795Z,100158.64
2019-03-09T08:10:31.068Z,100157.86
2019-03-09T08:13:01.646Z,100146.56
2019-03-09T08:15:34.057Z,100161.63
2019-03-09T08:18:03.458Z,100161.09
2019-03-09T08:20:33.048Z,100157.45
2019-03-09T08:23:02.510Z,100160.87
2019-03-09T08:25:33.063Z,100161.56
2019-03-09T08:28:02.509Z,100177.01
2019-03-09T08:30:31.928Z,100161.45
2019-03-09T08:33:02.439Z,100154.67
2019-03-09T08:35:31.855Z,100150.71
2019-03-09T08:38:01.313Z,100169.88
2019-03-09T08:40:30.769Z,100173.94
2019-03-09T08:43:00.863Z,100166.68
2019-03-09T08:45:30.302Z,100162.46
2019-03-09T08:47:59.711Z,100178.08
2019-03-09T08:50:29.229Z,100167.78
2019-03-09T08:52:58.747Z,100172.00
2019-03-09T08:55:28.190Z,100172.25
2019-03-09T08:57:57.663Z,100187.02
2019-03-09T09:00:30.495Z,100190.98
2019-03-09T09:03:00.919Z,100197.59
2019-03-09T09:05:30.518Z,100194.52
2019-03-09T09:08:00.031Z,100206.86
2019-03-09T09:10:29.664Z,100203.45
2019-03-09T09:13:00.211Z,100209.53
2019-03-09T09:15:29.641Z,100225.81
2019-03-09T09:18:00.778Z,100225.49
2019-03-09T09:20:30.202Z,100224.95
2019-03-09T09:22:59.718Z,100219.25
2019-03-09T09:25:29.285Z,100232.74
2019-03-09T09:27:58.750Z,100237.37
2019-03-09T09:30:30.788Z,100247.37
2019-03-09T09:33:00.572Z,100239.17
2019-03-09T09:35:30.066Z,100242.16
2019-03-09T09:37:59.571Z,100253.34
2019-03-09T09:40:29.157Z,100246.02
2019-03-09T09:42:58.735Z,100256.26
2019-03-09T09:45:28.402Z,100232.28
2019-03-09T09:47:57.959Z,100253.33
2019-03-09T09:50:27.372Z,100229.19
2019-03-09T09:52:56.800Z,100245.80
2019-03-09T09:55:26.250Z,100247.41
2019-03-09T09:57:56.737Z,100239.75
2019-03-09T10:00:29.058Z,100246.93
2019-03-09T10:02:58.506Z,100239.00
2019-03-09T10:05:28.026Z,100237.90
2019-03-09T10:08:00.907Z,100240.83
2019-03-09T10:10:30.438Z,100238.91
2019-03-09T10:12:59.919Z,100238.44
2019-03-09T10:15:31.094Z,100241.80
2019-03-09T10:18:00.608Z,100247.42
2019-03-09T10:20:30.045Z,100231.72
2019-03-09T10:23:04.586Z,100240.11
2019-03-09T10:25:33.275Z,100236.59
2019-03-09T10:28:02.763Z,100232.71
2019-03-09T10:30:32.275Z,100235.75
2019-03-09T10:33:01.793Z,100222.64
2019-03-09T10:35:32.170Z,100229.64
2019-03-09T10:38:02.692Z,100229.91
2019-03-09T10:40:32.227Z,100219.02
2019-03-09T10:43:01.657Z,100217.78
2019-03-09T10:45:31.173Z,100215.91
2019-03-09T10:48:00.622Z,100216.89
2019-03-09T10:50:30.035Z,100207.03
2019-03-09T10:52:59.484Z,100209.67
2019-03-09T10:55:34.037Z,100209.31
2019-03-09T10:58:03.545Z,100217.16
2019-03-09T11:00:37.636Z,100225.08
2019-03-09T11:03:07.213Z,100225.32
2019-03-09T11:05:36.762Z,100225.03
2019-03-09T11:08:06.444Z,100231.91
2019-03-09T11:10:35.996Z,100224.81
2019-03-09T11:13:05.591Z,100221.25
2019-03-09T11:15:37.677Z,100215.50
2019-03-09T11:18:06.697Z,100207.41
2019-03-09T11:20:36.209Z,100194.35
2019-03-09T11:23:05.647Z,100185.31
2019-03-09T11:25:35.066Z,100187.50
2019-03-09T11:28:09.731Z,100172.44
2019-03-09T11:30:39.224Z,100169.52
2019-03-09T11:33:08.751Z,100151.68
2019-03-09T11:35:38.280Z,100156.39
2019-03-09T11:38:07.795Z,100158.97
2019-03-09T11:40:38.819Z,100143.27
2019-03-09T11:43:08.373Z,100175.72
2019-03-09T11:45:37.949Z,100145.39
2019-03-09T11:48:07.728Z,100160.98
2019-03-09T11:50:37.234Z,100154.08
2019-03-09T11:53:06.722Z,100144.77
2019-03-09T11:55:39.363Z,100144.57
2019-03-09T11:58:08.779Z,100135.14
2019-03-09T12:00:42.596Z,100145.76
2019-03-09T12:03:12.118Z,100170.18
2019-03-09T12:05:41.590Z,100146.52
2019-03-09T12:08:11.207Z,100154.77
2019-03-09T12:10:43.821Z,100148.31
2019-03-09T12:13:13.315Z,100152.80
2019-03-09T12:15:42.745Z,100137.09
2019-03-09T12:18:12.354Z,100135.67
2019-03-09T12:20:41.955Z,100156.41
2019-03-09T12:23:20.086Z,100158.19
2019-03-09T12:25:49.604Z,100158.19
2019-03-09T12:28:19.189Z,100151.45
2019-03-09T12:30:48.796Z,100151.45
2019-03-09T12:33:18.260Z,100130.03
2019-03-09T12:35:47.774Z,100132.23
2019-03-09T12:38:17.366Z,100132.23
2019-03-09T12:40:46.974Z,100138.19
2019-03-09T12:43:16.528Z,100115.79
2019-03-09T12:45:46.124Z,100115.79
2019-03-09T12:48:19.844Z,100135.91
2019-03-09T12:50:49.384Z,100127.34
2019-03-09T12:53:21.982Z,100124.05
2019-03-09T12:55:51.537Z,100118.63
2019-03-09T12:58:22.647Z,100112.50
2019-03-09T13:00:52.226Z,100112.50
2019-03-09T13:03:23.370Z,100099.03
2019-03-09T13:05:52.796Z,100099.03
2019-03-09T13:08:25.519Z,100080.28
2019-03-09T13:10:56.021Z,100079.59
2019-03-09T13:13:27.210Z,100083.09
2019-03-09T13:15:56.640Z,100064.84
2019-03-09T13:18:26.095Z,100055.76
2019-03-09T13:20:58.461Z,100054.37
2019-03-09T13:23:27.953Z,100043.63
2019-03-09T13:25:57.465Z,100036.52
2019-03-09T13:28:29.882Z,100009.25
2019-03-09T13:30:59.308Z,100019.89
2019-03-09T13:33:30.285Z,100028.72
2019-03-09T13:36:01.423Z,100020.77
2019-03-09T13:38:30.921Z,100013.89
2019-03-09T13:41:00.343Z,100007.78
2019-03-09T13:43:29.776Z,100007.78
2019-03-09T13:45:59.199Z,100000.03
2019-03-09T13:48:28.703Z,100006.52
2019-03-09T13:50:58.429Z,100020.10
2019-03-09T13:53:27.962Z,100017.47
2019-03-09T13:55:57.386Z,100024.19
2019-03-09T13:58:26.818Z,100022.91
2019-03-09T14:00:56.300Z,100029.60
2019-03-09T14:03:28.758Z,100071.48
2019-03-09T14:05:58.187Z,100058.44
2019-03-09T14:08:27.599Z,100024.78
2019-03-09T14:10:57.096Z,100018.84
2019-03-09T14:13:26.658Z,100017.34
2019-03-09T14:15:56.096Z,100013.26
2019-03-09T14:18:27.278Z,100009.77
2019-03-09T14:20:58.416Z,100003.55
2019-03-09T14:23:27.909Z,100000.49
2019-03-09T14:25:58.986Z,99988.02
2019-03-09T14:28:28.391Z,99972.30
2019-03-09T14:30:57.904Z,99971.95
2019-03-09T14:33:28.923Z,99970.96
2019-03-09T14:35:58.693Z,99936.58
2019-03-09T14:38:28.178Z,99942.95
2019-03-09T14:40:57.698Z,99930.11
2019-03-09T14:43:27.109Z,99922.87
2019-03-09T14:45:56.553Z,99924.89
2019-03-09T14:48:26.009Z,99933.20
2019-03-09T14:50:55.420Z,99915.66
2019-03-09T14:53:28.210Z,99903.52
2019-03-09T14:55:57.709Z,99896.61
2019-03-09T14:58:27.157Z,99881.47
2019-03-09T15:00:56.708Z,99873.27
2019-03-09T15:03:26.206Z,99856.41
2019-03-09T15:05:55.794Z,99855.11
2019-03-09T15:08:28.035Z,99845.06
2019-03-09T15:10:57.449Z,99839.23
2019-03-09T15:13:26.969Z,99834.59
2019-03-09T15:15:56.468Z,99844.78
2019-03-09T15:18:25.971Z,99829.95
2019-03-09T15:20:55.405Z,99815.41
2019-03-09T15:23:24.905Z,99819.16
2019-03-09T15:25:54.311Z,99809.86
2019-03-09T15:28:23.815Z,99794.84
2019-03-09T15:30:53.308Z,99794.82
2019-03-09T15:33:22.801Z,99808.64
2019-03-09T15:35:52.202Z,99812.56
2019-03-09T15:38:21.719Z,99837.00
2019-03-09T15:40:51.122Z,99842.44
2019-03-09T15:43:20.561Z,99846.25
2019-03-09T15:45:49.989Z,99864.94
2019-03-09T15:48:19.472Z,99882.69
2019-03-09T15:50:48.982Z,99865.80
2019-03-09T15:53:19.287Z,99853.58
2019-03-09T15:55:49.674Z,99848.81
2019-03-09T15:58:22.055Z,99830.03
2019-03-09T16:00:52.847Z,99823.31
2019-03-09T16:03:22.234Z,99829.12
2019-03-09T16:05:51.690Z,99832.13
2019-03-09T16:08:21.091Z,99817.62
2019-03-09T16:10:50.685Z,99812.37
2019-03-09T16:13:20.227Z,99803.44
2019-03-09T16:15:49.800Z,99799.84
2019-03-09T16:18:19.232Z,99796.72
2019-03-09T16:20:48.714Z,99795.15
2019-03-09T16:23:18.148Z,99787.73
2019-03-09T16:25:55.375Z,99778.95
2019-03-09T16:28:25.347Z,99785.88
2019-03-09T16:30:57.712Z,99780.19
2019-03-09T16:33:26.067Z,99762.05
2019-03-09T16:35:57.348Z,99787.63
2019-03-09T16:38:26.812Z,99778.20
2019-03-09T16:40:56.219Z,99769.35
2019-03-09T16:43:25.763Z,99772.56
2019-03-09T16:45:55.204Z,99771.70
2019-03-09T16:48:24.688Z,99764.21
2019-03-09T16:50:58.429Z,99753.84
2019-03-09T16:53:27.895Z,99786.63
2019-03-09T16:55:58.863Z,99794.92
2019-03-09T16:58:29.314Z,99805.73
2019-03-09T17:01:00.530Z,99809.16
2019-03-09T17:03:31.584Z,99798.27
2019-03-09T17:06:01.100Z,99798.82
2019-03-09T17:08:30.701Z,99805.73
2019-03-09T17:11:03.123Z,99796.64
2019-03-09T17:13:32.902Z,99788.09
2019-03-09T17:16:02.410Z,99791.14
2019-03-09T17:18:31.897Z,99780.36
2019-03-09T17:21:03.212Z,99795.53
2019-03-09T17:23:32.620Z,99794.73
2019-03-09T17:26:02.053Z,99812.59
2019-03-09T17:28:33.094Z,99809.13
2019-03-09T17:31:02.530Z,99813.53
2019-03-09T17:33:32.424Z,99825.33
2019-03-09T17:36:01.882Z,99833.06
2019-03-09T17:38:31.385Z,99824.03
2019-03-09T17:41:00.866Z,99859.10
2019-03-09T17:43:31.913Z,99869.16
2019-03-09T17:46:08.840Z,99854.34
2019-03-09T17:48:38.270Z,99869.34
2019-03-09T17:51:08.182Z,99874.59
2019-03-09T17:53:37.621Z,99871.94
2019-03-09T17:56:07.033Z,99882.44
2019-03-09T17:58:36.469Z,99890.59
2019-03-09T18:01:05.875Z,99898.78
2019-03-09T18:03:35.315Z,99900.29
2019-03-09T18:06:04.786Z,99907.77
2019-03-09T18:08:34.211Z,99915.84
2019-03-09T18:11:11.627Z,99937.27
2019-03-09T18:13:41.111Z,99946.58
2019-03-09T18:16:10.524Z,99976.54
2019-03-09T18:18:39.959Z,100001.40
2019-03-09T18:21:09.439Z,100006.84
2019-03-09T18:23:41.219Z,100016.91
2019-03-09T18:26:10.654Z,100026.09
2019-03-09T18:28:45.164Z,100047.58
2019-03-09T18:31:14.647Z,100075.41
2019-03-09T18:33:44.146Z,100107.22
2019-03-09T18:36:13.725Z,100129.68
2019-03-09T18:38:43.136Z,100131.06
2019-03-09T18:41:12.652Z,100154.42
2019-03-09T18:43:42.067Z,100165.85
2019-03-09T18:46:13.752Z,100179.00
2019-03-09T18:48:42.677Z,100198.98
2019-03-09T18:51:12.108Z,100202.80
2019-03-09T18:53:41.664Z,100221.13
2019-03-09T18:56:11.135Z,100213.97
2019-03-09T18:58:40.714Z,100242.62
2019-03-09T19:01:10.283Z,100254.44
2019-03-09T19:03:39.883Z,100267.84
2019-03-09T19:06:09.378Z,100255.09
2019-03-09T19:08:38.894Z,100270.18
2019-03-09T19:11:08.331Z,100293.69
2019-03-09T19:13:37.784Z,100300.38
2019-03-09T19:16:07.352Z,100310.75
2019-03-09T19:18:36.866Z,100328.50
2019-03-09T19:21:06.303Z,100345.77
2019-03-09T19:23:35.756Z,100349.27
2019-03-09T19:26:05.311Z,100375.19
2019-03-09T19:28:34.818Z,100381.67
2019-03-09T19:31:04.407Z,100394.66
2019-03-09T19:33:33.813Z,100387.44
2019-03-09T19:36:03.276Z,100397.41
2019-03-09T19:38:33.023Z,100415.11
2019-03-09T19:41:02.529Z,100423.20
2019-03-09T19:43:32.000Z,100433.94
2019-03-09T19:46:01.452Z,100449.64
2019-03-09T19:48:30.868Z,100461.30
2019-03-09T19:51:03.093Z,100470.41
2019-03-09T19:53:35.525Z,100479.07
2019-03-09T19:56:05.043Z,100486.91
2019-03-09T19:58:34.456Z,100485.66
2019-03-09T20:01:05.542Z,100490.44
2019-03-09T20:03:34.965Z,100489.68
2019-03-09T20:06:04.471Z,100495.70
2019-03-09T20:08:34.975Z,100515.16
2019-03-09T20:11:04.528Z,100516.89
2019-03-09T20:13:34.979Z,100521.69
2019-03-09T20:16:04.497Z,100513.53
2019-03-09T20:18:35.011Z,100522.65
2019-03-09T20:21:04.783Z,100530.84
2019-03-09T20:23:34.198Z,100539.03
2019-03-09T20:26:03.649Z,100537.73
2019-03-09T20:28:33.107Z,100534.69
2019-03-09T20:31:02.512Z,100542.52
2019-03-09T20:33:32.127Z,100542.01
2019-03-09T20:36:01.609Z,100541.14
2019-03-09T20:38:31.105Z,100544.64
2019-03-09T20:41:00.573Z,100544.67
2019-03-09T20:43:30.050Z,100552.44
2019-03-09T20:46:00.558Z,100564.53
2019-03-09T20:48:30.093Z,100560.62
2019-03-09T20:50:59.526Z,100557.62
2019-03-09T20:53:29.010Z,100571.91
2019-03-09T20:55:58.439Z,100564.57
2019-03-09T20:58:27.852Z,100553.80
2019-03-09T21:00:57.307Z,100566.75
2019-03-09T21:03:26.820Z,100571.48
2019-03-09T21:05:56.369Z,100579.64
2019-03-09T21:08:25.797Z,100580.09
2019-03-09T21:11:03.395Z,100584.34
2019-03-09T21:13:26.488Z,100588.26
2019-03-09T21:15:55.941Z,100596.48
2019-03-09T21:18:25.416Z,100586.56
2019-03-09T21:20:54.842Z,100585.27
2019-03-09T21:23:24.251Z,100586.11
2019-03-09T21:25:53.745Z,100588.75
2019-03-09T21:28:24.256Z,100579.24
2019-03-09T21:30:53.680Z,100590.06
2019-03-09T21:33:23.123Z,100595.25
2019-03-09T21:35:52.545Z,100588.43
2019-03-09T21:38:21.980Z,100589.78
2019-03-09T21:40:51.387Z,100597.99
2019-03-09T21:43:20.883Z,100596.20
2019-03-09T21:45:50.248Z,100597.90
2019-03-09T21:48:20.039Z,100609.08
2019-03-09T21:50:49.472Z,100604.31
2019-03-09T21:53:18.887Z,100609.06
2019-03-09T21:55:48.418Z,100607.38
2019-03-09T21:58:17.836Z,100613.53
2019-03-09T22:00:47.276Z,100612.73
2019-03-09T22:03:17.765Z,100618.03
2019-03-09T22:05:48.233Z,100620.73
2019-03-09T22:08:18.031Z,100625.02
2019-03-09T22:10:48.587Z,100621.65
2019-03-09T22:13:18.643Z,100625.59
2019-03-09T22:15:48.180Z,100619.99
2019-03-09T22:18:17.591Z,100620.42
2019-03-09T22:20:47.094Z,100628.67
2019-03-09T22:23:16.579Z,100625.27
2019-03-09T22:25:55.193Z,100614.02
2019-03-09T22:28:24.675Z,100613.98
2019-03-09T22:30:54.223Z,100617.03
2019-03-09T22:33:23.633Z,100622.23
2019-03-09T22:35:53.057Z,100617.50
2019-03-09T22:38:22.469Z,100613.22
2019-03-09T22:40:52.022Z,100607.14
2019-03-09T22:43:21.402Z,100612.33
2019-03-09T22:45:50.845Z,100605.44
2019-03-09T22:48:20.249Z,100611.92
2019-03-09T22:50:51.651Z,100611.08
2019-03-09T22:53:21.053Z,100614.96
2019-03-09T22:55:53.940Z,100617.10
2019-03-09T22:58:23.367Z,100616.70
2019-03-09T23:00:53.602Z,100630.09
2019-03-09T23:03:29.123Z,100629.63
2019-03-09T23:06:00.033Z,100617.51
2019-03-09T23:08:30.023Z,100617.10
2019-03-09T23:11:00.814Z,100617.55
2019-03-09T23:13:30.221Z,100618.39
2019-03-09T23:15:59.657Z,100616.66
2019-03-09T23:18:30.206Z,100614.03
2019-03-09T23:20:59.709Z,100606.27
2019-03-09T23:23:29.415Z,100606.25
2019-03-09T23:25:58.964Z,100601.12
2019-03-09T23:28:31.514Z,100602.45
2019-03-09T23:31:00.993Z,100598.58
2019-03-09T23:33:30.421Z,100615.77
2019-03-09T23:35:59.911Z,100600.24
2019-03-09T23:38:29.522Z,100611.84
2019-03-09T23:40:58.938Z,100612.63
2019-03-09T23:43:31.194Z,100605.29
2019-03-09T23:46:00.732Z,100612.20
2019-03-09T23:48:30.302Z,100615.11
2019-03-09T23:50:59.792Z,100619.46
2019-03-09T23:53:29.482Z,100610.77
2019-03-09T23:55:58.999Z,100620.65
2019-03-09T23:58:32.918Z,100613.80
